createdAt,value
2019-03-03T00:00:09.195Z,6.83
2019-03-03T00:02:39.121Z,6.80
2019-03-03T00:05:08.727Z,5.60
2019-03-03T00:07:38.137Z,6.60
2019-03-03T00:10:08.058Z,6.57
2019-03-03T00:12:37.226Z,6.00
2019-03-03T00:15:07.732Z,6.00
2019-03-03T00:17:37.030Z,5.10
2019-03-03T00:20:06.780Z,5.53
2019-03-03T00:22:36.244Z,4.73
2019-03-03T00:25:05.992Z,5.00
2019-03-03T00:27:35.694Z,5.27
2019-03-03T00:30:06.401Z,4.60
2019-03-03T00:32:36.215Z,4.70
2019-03-03T00:35:05.990Z,4.83
2019-03-03T00:37:55.910Z,4.60
2019-03-03T00:40:33.210Z,4.30
2019-03-03T00:43:13.581Z,4.23
2019-03-03T00:45:49.240Z,4.43
2019-03-03T00:48:25.193Z,4.00
2019-03-03T00:53:02.646Z,3.80
2019-03-03T00:55:37.770Z,3.90
2019-03-03T00:58:29.152Z,3.73
2019-03-03T01:01:04.490Z,4.00
2019-03-03T01:03:40.267Z,4.00
2019-03-03T01:06:15.218Z,3.60
2019-03-03T01:10:54.426Z,4.00
2019-03-03T01:14:00.311Z,3.93
2019-03-03T01:16:45.787Z,3.77
2019-03-03T01:19:26.955Z,3.80
2019-03-03T01:22:08.042Z,4.23
2019-03-03T01:24:50.152Z,3.37
2019-03-03T01:27:19.698Z,3.40
2019-03-03T01:29:49.586Z,3.63
2019-03-03T01:32:19.603Z,3.40
2019-03-03T01:34:49.803Z,3.47
2019-03-03T01:37:18.987Z,3.40
2019-03-03T01:39:48.638Z,3.87
2019-03-03T01:42:19.646Z,3.80
2019-03-03T01:44:50.370Z,3.43
2019-03-03T01:47:21.116Z,3.87
2019-03-03T01:49:51.326Z,3.87
2019-03-03T01:52:21.150Z,3.80
2019-03-03T01:54:50.956Z,3.43
2019-03-03T01:57:20.991Z,3.80
2019-03-03T01:59:50.113Z,3.80
2019-03-03T02:02:19.894Z,4.07
2019-03-03T02:04:49.838Z,3.80
2019-03-03T02:07:19.734Z,3.93
2019-03-03T02:09:49.552Z,3.50
2019-03-03T02:12:19.894Z,4.47
2019-03-03T02:14:50.586Z,3.30
2019-03-03T02:17:20.608Z,3.07
2019-03-03T02:19:50.559Z,3.60
2019-03-03T02:22:20.403Z,3.97
2019-03-03T02:24:50.216Z,3.80
2019-03-03T02:27:20.574Z,3.63
2019-03-03T02:29:50.481Z,3.67
2019-03-03T02:32:21.210Z,3.77
2019-03-03T02:34:51.450Z,4.23
2019-03-03T02:37:21.354Z,4.03
2019-03-03T02:39:51.089Z,3.70
2019-03-03T02:42:21.259Z,3.70
2019-03-03T02:44:51.267Z,3.97
2019-03-03T02:47:21.614Z,3.90
2019-03-03T02:49:51.682Z,3.00
2019-03-03T02:52:21.559Z,4.17
2019-03-03T02:54:51.222Z,3.67
2019-03-03T02:57:21.562Z,3.20
2019-03-03T02:59:51.487Z,3.43
2019-03-03T03:02:26.479Z,3.20
2019-03-03T03:04:56.535Z,3.40
2019-03-03T03:07:32.522Z,2.97
2019-03-03T03:10:07.918Z,3.07
2019-03-03T03:12:42.960Z,3.03
2019-03-03T03:15:18.305Z,3.20
2019-03-03T03:17:52.530Z,2.87
2019-03-03T03:20:26.808Z,2.93
2019-03-03T03:23:03.002Z,3.23
2019-03-03T03:25:40.064Z,3.80
2019-03-03T03:28:18.158Z,2.90
2019-03-03T03:30:53.889Z,3.13
2019-03-03T03:33:29.016Z,2.57
2019-03-03T03:36:06.083Z,3.53
2019-03-03T03:38:43.714Z,3.00
2019-03-03T03:41:18.927Z,3.03
2019-03-03T03:43:57.088Z,2.90
2019-03-03T03:46:35.781Z,3.43
2019-03-03T03:49:44.517Z,3.30
2019-03-03T03:52:23.614Z,3.00
2019-03-03T03:55:28.604Z,3.23
2019-03-03T03:58:10.468Z,3.20
2019-03-03T04:01:15.614Z,3.50
2019-03-03T04:03:52.936Z,3.23
2019-03-03T04:06:27.780Z,3.40
2019-03-03T04:09:02.534Z,3.80
2019-03-03T04:11:44.718Z,3.37
2019-03-03T04:14:21.486Z,3.73
2019-03-03T04:16:56.185Z,3.40
2019-03-03T04:19:31.495Z,3.87
2019-03-03T04:22:06.682Z,3.97
2019-03-03T04:24:42.561Z,4.90
2019-03-03T04:29:19.018Z,4.00
2019-03-03T04:32:00.307Z,4.30
2019-03-03T04:34:37.470Z,4.67
2019-03-03T04:37:18.591Z,4.77
2019-03-03T04:39:56.239Z,4.80
2019-03-03T04:42:34.456Z,3.60
2019-03-03T04:45:09.635Z,4.03
2019-03-03T04:47:49.286Z,4.20
2019-03-03T04:50:26.986Z,4.07
2019-03-03T04:55:05.457Z,4.23
2019-03-03T04:59:43.627Z,4.50
2019-03-03T05:02:20.143Z,4.17
2019-03-03T05:04:56.771Z,5.20
2019-03-03T05:08:34.507Z,4.03
2019-03-03T05:11:10.598Z,3.70
2019-03-03T05:13:49.402Z,4.10
2019-03-03T05:16:23.522Z,3.90
2019-03-03T05:18:58.127Z,3.30
2019-03-03T05:21:27.251Z,3.97
2019-03-03T05:23:56.901Z,3.50
2019-03-03T05:26:27.058Z,3.13
2019-03-03T05:28:57.783Z,3.17
2019-03-03T05:31:29.375Z,3.30
2019-03-03T05:33:57.658Z,3.67
2019-03-03T05:36:27.701Z,2.97
2019-03-03T05:38:58.249Z,3.47
2019-03-03T05:41:28.922Z,3.50
2019-03-03T05:43:59.109Z,3.67
2019-03-03T05:46:28.795Z,3.50
2019-03-03T05:48:58.451Z,3.57
2019-03-03T05:51:28.692Z,2.90
2019-03-03T05:53:58.582Z,3.57
2019-03-03T05:56:28.298Z,3.43
2019-03-03T05:58:59.422Z,3.97
2019-03-03T06:01:29.207Z,3.17
2019-03-03T06:03:59.083Z,4.17
2019-03-03T06:06:29.741Z,3.20
2019-03-03T06:09:00.007Z,3.00
2019-03-03T06:11:30.049Z,3.27
2019-03-03T06:14:00.450Z,3.00
2019-03-03T06:16:29.859Z,3.57
2019-03-03T06:18:59.539Z,3.67
2019-03-03T06:21:29.420Z,3.40
2019-03-03T06:24:00.024Z,3.73
2019-03-03T06:26:29.171Z,3.37
2019-03-03T06:28:59.297Z,3.10
2019-03-03T06:31:28.468Z,3.33
2019-03-03T06:33:57.804Z,3.33
2019-03-03T06:36:27.850Z,2.93
2019-03-03T06:38:58.367Z,3.73
2019-03-03T06:41:28.055Z,2.90
2019-03-03T06:43:58.127Z,3.50
2019-03-03T06:46:27.703Z,3.20
2019-03-03T06:48:57.375Z,3.60
2019-03-03T06:51:26.777Z,2.80
2019-03-03T06:53:56.512Z,3.90
2019-03-03T06:56:25.669Z,3.00
2019-03-03T06:58:55.843Z,3.53
2019-03-03T07:01:25.442Z,2.73
2019-03-03T07:03:55.281Z,3.13
2019-03-03T07:06:24.782Z,3.27
2019-03-03T07:08:54.583Z,3.37
2019-03-03T07:11:24.466Z,3.23
2019-03-03T07:13:54.711Z,3.70
2019-03-03T07:16:23.890Z,3.13
2019-03-03T07:18:53.675Z,3.43
2019-03-03T07:21:23.684Z,3.17
2019-03-03T07:23:53.335Z,3.27
2019-03-03T07:26:22.447Z,3.50
2019-03-03T07:28:51.833Z,3.10
2019-03-03T07:31:21.509Z,3.03
2019-03-03T07:33:54.045Z,3.17
2019-03-03T07:36:23.494Z,3.23
2019-03-03T07:38:53.385Z,2.90
2019-03-03T07:41:22.926Z,2.93
2019-03-03T07:43:53.005Z,2.50
2019-03-03T07:46:22.700Z,2.77
2019-03-03T07:48:52.450Z,3.27
2019-03-03T07:51:21.895Z,2.90
2019-03-03T07:53:51.746Z,3.00
2019-03-03T07:56:20.833Z,2.73
2019-03-03T07:58:50.861Z,3.17
2019-03-03T08:01:20.606Z,2.77
2019-03-03T08:03:50.512Z,3.00
2019-03-03T08:06:21.068Z,2.80
2019-03-03T08:08:50.196Z,3.10
2019-03-03T08:11:20.087Z,3.00
2019-03-03T08:13:49.862Z,2.37
2019-03-03T08:16:19.590Z,2.97
2019-03-03T08:18:49.383Z,2.60
2019-03-03T08:21:19.598Z,2.70
2019-03-03T08:23:49.338Z,2.73
2019-03-03T08:26:18.490Z,3.30
2019-03-03T08:28:48.516Z,2.70
2019-03-03T08:31:17.751Z,2.93
2019-03-03T08:33:47.026Z,2.83
2019-03-03T08:36:17.857Z,2.53
2019-03-03T08:38:51.801Z,2.80
2019-03-03T08:41:22.934Z,2.80
2019-03-03T08:44:03.518Z,2.50
2019-03-03T08:46:45.593Z,2.83
2019-03-03T08:49:21.520Z,2.63
2019-03-03T08:51:59.901Z,3.00
2019-03-03T08:54:39.205Z,2.77
2019-03-03T08:57:13.470Z,2.43
2019-03-03T08:59:51.318Z,2.40
2019-03-03T09:02:26.123Z,2.80
2019-03-03T09:05:00.412Z,2.20
2019-03-03T09:07:34.599Z,2.60
2019-03-03T09:10:12.505Z,2.70
2019-03-03T09:12:46.883Z,2.30
2019-03-03T09:17:24.222Z,1.87
2019-03-03T09:20:00.826Z,2.57
2019-03-03T09:22:36.598Z,2.67
2019-03-03T09:25:18.132Z,2.60
2019-03-03T09:29:54.755Z,2.67
2019-03-03T09:32:29.447Z,2.30
2019-03-03T09:35:04.766Z,2.43
2019-03-03T09:37:44.250Z,3.20
2019-03-03T09:43:00.994Z,3.90
2019-03-03T09:45:35.640Z,2.80
2019-03-03T09:48:12.536Z,2.70
2019-03-03T09:50:49.179Z,2.40
2019-03-03T09:53:26.794Z,2.50
2019-03-03T09:56:04.515Z,3.37
2019-03-03T09:58:41.047Z,3.10
2019-03-03T10:01:32.039Z,2.50
2019-03-03T10:04:23.286Z,2.60
2019-03-03T10:09:03.195Z,3.17
2019-03-03T10:11:38.512Z,2.50
2019-03-03T10:14:12.537Z,2.83
2019-03-03T10:18:53.880Z,2.77
2019-03-03T10:21:34.322Z,3.00
2019-03-03T10:24:38.880Z,2.63
2019-03-03T10:28:19.727Z,2.80
2019-03-03T10:30:57.052Z,3.00
2019-03-03T10:34:36.746Z,2.60
2019-03-03T10:39:12.520Z,2.67
2019-03-03T10:42:20.031Z,2.13
2019-03-03T10:44:55.666Z,2.80
2019-03-03T10:47:34.426Z,2.77
2019-03-03T10:50:39.358Z,2.40
2019-03-03T10:53:14.827Z,2.23
2019-03-03T10:57:53.051Z,3.00
2019-03-03T11:00:33.461Z,2.70
2019-03-03T11:03:22.931Z,2.87
2019-03-03T11:06:27.297Z,2.80
2019-03-03T11:09:02.395Z,2.47
2019-03-03T11:12:39.574Z,2.77
2019-03-03T11:17:19.387Z,2.77
2019-03-03T11:22:05.191Z,3.03
2019-03-03T11:25:13.751Z,3.00
2019-03-03T11:27:51.798Z,2.63
2019-03-03T11:30:56.476Z,2.27
2019-03-03T11:33:38.386Z,2.87
2019-03-03T11:36:15.766Z,2.83
2019-03-03T11:38:51.570Z,3.30
2019-03-03T11:41:34.775Z,2.90
2019-03-03T11:44:10.118Z,2.83
2019-03-03T11:46:54.487Z,2.83
2019-03-03T11:49:46.542Z,2.70
2019-03-03T11:52:21.119Z,2.30
2019-03-03T11:54:57.908Z,2.60
2019-03-03T11:57:46.350Z,3.10
2019-03-03T12:00:56.084Z,2.30
2019-03-03T12:05:32.772Z,2.50
2019-03-03T12:08:12.966Z,2.63
2019-03-03T12:10:47.423Z,2.20
2019-03-03T12:13:25.538Z,2.70
2019-03-03T12:16:00.463Z,2.77
2019-03-03T12:20:37.732Z,2.20
2019-03-03T12:23:14.151Z,2.77
2019-03-03T12:25:55.068Z,2.87
2019-03-03T12:28:30.548Z,2.70
2019-03-03T12:31:05.020Z,2.60
2019-03-03T12:33:38.869Z,2.63
2019-03-03T12:36:13.225Z,2.60
2019-03-03T12:38:51.790Z,2.80
2019-03-03T12:43:27.589Z,2.97
2019-03-03T12:46:08.185Z,3.00
2019-03-03T12:48:44.703Z,2.93
2019-03-03T12:53:23.382Z,2.70
2019-03-03T12:56:07.028Z,1.90
2019-03-03T12:58:46.278Z,2.40
2019-03-03T13:01:23.903Z,3.07
2019-03-03T13:03:59.275Z,2.57
2019-03-03T13:06:39.465Z,2.93
2019-03-03T13:09:19.288Z,2.80
2019-03-03T13:11:54.486Z,2.60
2019-03-03T13:14:29.389Z,2.70
2019-03-03T13:17:34.150Z,2.83
2019-03-03T13:20:16.369Z,2.30
2019-03-03T13:22:53.242Z,2.33
2019-03-03T13:25:29.047Z,2.80
2019-03-03T13:28:11.285Z,2.70
2019-03-03T13:35:25.970Z,2.33
2019-03-03T13:38:05.962Z,2.20
2019-03-03T13:40:42.176Z,2.23
2019-03-03T13:43:11.808Z,2.53
2019-03-03T13:45:41.150Z,2.47
2019-03-03T13:48:11.003Z,2.83
2019-03-03T13:50:40.732Z,2.27
2019-03-03T13:53:10.218Z,3.10
2019-03-03T13:55:40.284Z,2.70
2019-03-03T13:58:10.269Z,2.40
2019-03-03T14:00:39.573Z,2.70
2019-03-03T14:03:09.538Z,2.70
2019-03-03T14:05:39.183Z,2.43
2019-03-03T14:08:08.448Z,2.40
2019-03-03T14:10:38.337Z,2.50
2019-03-03T14:13:07.830Z,2.70
2019-03-03T14:15:37.098Z,2.23
2019-03-03T14:18:09.290Z,2.57
2019-03-03T14:20:39.929Z,2.93
2019-03-03T14:23:09.157Z,2.20
2019-03-03T14:25:38.322Z,2.53
2019-03-03T14:28:07.994Z,2.43
2019-03-03T14:30:41.727Z,2.20
2019-03-03T14:33:11.662Z,1.97
2019-03-03T14:35:40.881Z,2.70
2019-03-03T14:38:10.364Z,2.07
2019-03-03T14:40:40.925Z,2.03
2019-03-03T14:43:10.175Z,2.67
2019-03-03T14:45:39.494Z,2.17
2019-03-03T14:48:08.946Z,2.40
2019-03-03T14:50:43.370Z,2.67
2019-03-03T14:53:14.402Z,2.53
2019-03-03T14:55:44.419Z,2.70
2019-03-03T14:58:13.598Z,2.50
2019-03-03T15:00:43.222Z,2.17
2019-03-03T15:03:12.456Z,2.53
2019-03-03T15:05:41.803Z,2.37
2019-03-03T15:08:12.237Z,2.40
2019-03-03T15:10:41.550Z,2.20
2019-03-03T15:13:10.791Z,2.60
2019-03-03T15:15:40.362Z,1.90
2019-03-03T15:18:09.767Z,2.13
2019-03-03T15:20:39.018Z,1.53
2019-03-03T15:23:08.510Z,2.40
2019-03-03T15:25:37.660Z,2.20
2019-03-03T15:28:07.692Z,2.30
2019-03-03T15:30:37.415Z,2.37
2019-03-03T15:33:06.732Z,2.57
2019-03-03T15:35:35.991Z,2.03
2019-03-03T15:38:05.602Z,2.20
2019-03-03T15:40:35.178Z,1.80
2019-03-03T15:43:04.390Z,3.17
2019-03-03T15:45:34.086Z,2.37
2019-03-03T15:48:03.649Z,2.77
2019-03-03T15:50:33.207Z,2.10
2019-03-03T15:53:03.024Z,2.07
2019-03-03T15:55:34.202Z,2.00
2019-03-03T15:58:03.422Z,2.50
2019-03-03T16:00:33.503Z,2.40
2019-03-03T16:03:02.750Z,2.33
2019-03-03T16:05:33.030Z,2.20
2019-03-03T16:08:03.898Z,2.70
2019-03-03T16:10:35.311Z,2.00
2019-03-03T16:13:05.120Z,2.23
2019-03-03T16:15:34.844Z,2.07
2019-03-03T16:18:04.046Z,2.20
2019-03-03T16:20:33.311Z,2.20
2019-03-03T16:23:05.387Z,1.77
2019-03-03T16:25:36.494Z,2.33
2019-03-03T16:28:06.143Z,1.90
2019-03-03T16:30:36.208Z,2.17
2019-03-03T16:33:05.491Z,2.10
2019-03-03T16:35:37.030Z,1.73
2019-03-03T16:38:06.462Z,2.37
2019-03-03T16:40:39.481Z,1.90
2019-03-03T16:43:05.169Z,1.90
2019-03-03T16:45:34.717Z,2.43
2019-03-03T16:48:04.307Z,2.10
2019-03-03T16:53:07.753Z,2.43
2019-03-03T16:55:37.404Z,1.90
2019-03-03T16:58:06.859Z,1.77
2019-03-03T17:00:36.574Z,2.20
2019-03-03T17:03:06.077Z,2.47
2019-03-03T17:05:35.377Z,2.50
2019-03-03T17:08:05.073Z,1.90
2019-03-03T17:10:34.199Z,2.50
2019-03-03T17:13:03.508Z,1.83
2019-03-03T17:15:33.174Z,1.87
2019-03-03T17:18:02.358Z,2.30
2019-03-03T17:20:31.917Z,2.00
2019-03-03T17:23:01.441Z,2.43
2019-03-03T17:25:30.687Z,2.23
2019-03-03T17:27:59.810Z,2.10
2019-03-03T17:30:29.594Z,2.70
2019-03-03T17:32:58.801Z,2.70
2019-03-03T17:35:28.158Z,2.13
2019-03-03T17:37:57.837Z,2.37
2019-03-03T17:40:27.082Z,2.70
2019-03-03T17:42:56.212Z,2.40
2019-03-03T17:45:26.795Z,2.07
2019-03-03T17:47:55.938Z,2.43
2019-03-03T17:50:25.788Z,3.00
2019-03-03T17:52:55.423Z,2.23
2019-03-03T17:55:24.712Z,2.07
2019-03-03T17:57:53.939Z,1.67
2019-03-03T18:00:24.862Z,2.40
2019-03-03T18:02:55.402Z,2.33
2019-03-03T18:05:24.656Z,2.00
2019-03-03T18:07:54.131Z,2.23
2019-03-03T18:10:24.576Z,1.87
2019-03-03T18:12:54.112Z,1.90
2019-03-03T18:15:23.847Z,1.77
2019-03-03T18:17:54.468Z,1.70
2019-03-03T18:20:23.865Z,1.90
2019-03-03T18:22:53.326Z,1.80
2019-03-03T18:25:23.151Z,2.00
2019-03-03T18:27:52.486Z,1.83
2019-03-03T18:30:22.867Z,1.97
2019-03-03T18:32:52.078Z,1.93
2019-03-03T18:35:21.402Z,2.20
2019-03-03T18:37:51.090Z,2.00
2019-03-03T18:40:22.309Z,1.73
2019-03-03T18:42:51.614Z,2.30
2019-03-03T18:45:21.422Z,1.90
2019-03-03T18:47:50.687Z,2.20
2019-03-03T18:50:20.481Z,2.13
2019-03-03T18:52:49.945Z,1.90
2019-03-03T18:55:19.135Z,1.70
2019-03-03T18:57:48.743Z,2.00
2019-03-03T19:00:22.737Z,1.90
2019-03-03T19:02:52.727Z,1.60
2019-03-03T19:05:21.992Z,1.90
2019-03-03T19:07:51.638Z,1.47
2019-03-03T19:10:21.861Z,1.83
2019-03-03T19:12:52.204Z,1.73
2019-03-03T19:15:21.785Z,1.70
2019-03-03T19:17:51.198Z,1.73
2019-03-03T19:20:20.740Z,1.97
2019-03-03T19:22:51.214Z,2.70
2019-03-03T19:25:20.814Z,2.10
2019-03-03T19:27:50.684Z,2.30
2019-03-03T19:30:22.719Z,2.03
2019-03-03T19:32:55.048Z,2.87
2019-03-03T19:35:24.617Z,2.10
2019-03-03T19:37:54.678Z,1.83
2019-03-03T19:40:24.714Z,1.90
2019-03-03T19:42:54.822Z,1.80
2019-03-03T19:45:26.599Z,2.20
2019-03-03T19:47:56.030Z,2.53
2019-03-03T19:50:25.335Z,2.27
2019-03-03T19:52:54.949Z,2.43
2019-03-03T19:55:24.243Z,2.00
2019-03-03T19:57:53.609Z,2.33
2019-03-03T20:00:35.017Z,2.30
2019-03-03T20:02:59.721Z,2.40
2019-03-03T20:05:29.194Z,1.87
2019-03-03T20:07:58.910Z,2.27
2019-03-03T20:10:28.945Z,2.07
2019-03-03T20:12:58.249Z,2.20
2019-03-03T20:15:27.784Z,1.63
2019-03-03T20:17:56.925Z,2.50
2019-03-03T20:20:28.279Z,2.07
2019-03-03T20:22:57.989Z,2.33
2019-03-03T20:25:27.554Z,2.00
2019-03-03T20:27:56.814Z,2.07
2019-03-03T20:30:26.480Z,2.23
2019-03-03T20:32:55.770Z,2.20
2019-03-03T20:35:24.963Z,2.03
2019-03-03T20:37:54.493Z,2.47
2019-03-03T20:40:23.791Z,2.23
2019-03-03T20:42:53.031Z,1.90
2019-03-03T20:45:23.522Z,2.90
2019-03-03T20:47:52.710Z,2.27
2019-03-03T20:50:24.205Z,2.20
2019-03-03T20:52:53.633Z,2.20
2019-03-03T20:55:22.868Z,2.87
2019-03-03T20:57:52.074Z,2.07
2019-03-03T21:00:23.199Z,2.20
2019-03-03T21:02:52.383Z,1.97
2019-03-03T21:05:21.538Z,1.83
2019-03-03T21:07:52.084Z,1.53
2019-03-03T21:10:21.383Z,2.23
2019-03-03T21:12:50.514Z,1.80
2019-03-03T21:15:20.171Z,2.37
2019-03-03T21:17:49.479Z,2.27
2019-03-03T21:20:19.018Z,2.40
2019-03-03T21:22:48.443Z,2.27
2019-03-03T21:25:18.442Z,2.10
2019-03-03T21:27:47.651Z,2.17
2019-03-03T21:30:19.974Z,1.93
2019-03-03T21:32:49.472Z,2.10
2019-03-03T21:35:18.663Z,2.27
2019-03-03T21:37:48.324Z,2.83
2019-03-03T21:40:18.290Z,2.37
2019-03-03T21:42:47.659Z,2.40
2019-03-03T21:45:18.568Z,2.47
2019-03-03T21:47:47.766Z,2.70
2019-03-03T21:50:18.594Z,2.30
2019-03-03T21:52:48.159Z,2.80
2019-03-03T21:55:17.359Z,2.17
2019-03-03T21:57:46.555Z,2.50
2019-03-03T22:00:26.210Z,2.50
2019-03-03T22:02:55.411Z,2.53
2019-03-03T22:05:25.381Z,2.53
2019-03-03T22:07:54.811Z,2.23
2019-03-03T22:10:30.481Z,2.40
2019-03-03T22:13:02.566Z,2.60
2019-03-03T22:15:31.826Z,3.17
2019-03-03T22:18:01.091Z,2.20
2019-03-03T22:20:30.670Z,2.20
2019-03-03T22:23:01.512Z,2.30
2019-03-03T22:25:29.255Z,3.23
2019-03-03T22:27:58.734Z,2.63
2019-03-03T22:30:28.178Z,2.53
2019-03-03T22:32:57.549Z,2.20
2019-03-03T22:35:26.950Z,2.27
2019-03-03T22:37:56.277Z,2.43
2019-03-03T22:40:25.593Z,2.00
2019-03-03T22:42:55.042Z,2.80
2019-03-03T22:45:25.042Z,2.77
2019-03-03T22:47:54.175Z,2.10
2019-03-03T22:50:23.701Z,1.90
2019-03-03T22:52:53.442Z,2.50
2019-03-03T22:55:22.796Z,1.67
2019-03-03T22:57:52.952Z,1.73
2019-03-03T23:00:34.190Z,2.60
2019-03-03T23:03:04.828Z,2.70
2019-03-03T23:05:44.526Z,2.13
2019-03-03T23:08:20.131Z,1.93
2019-03-03T23:11:14.312Z,3.00
2019-03-03T23:14:53.303Z,2.70
2019-03-03T23:17:32.628Z,2.90
2019-03-03T23:20:10.774Z,2.67
2019-03-03T23:23:03.379Z,2.27
2019-03-03T23:25:46.983Z,2.67
2019-03-03T23:28:16.534Z,2.17
2019-03-03T23:30:46.689Z,2.30
2019-03-03T23:33:15.855Z,2.23
2019-03-03T23:35:45.002Z,2.60
2019-03-03T23:38:14.442Z,2.47
2019-03-03T23:40:43.590Z,2.03
2019-03-03T23:43:14.298Z,1.83
2019-03-03T23:45:44.412Z,1.93
2019-03-03T23:48:14.119Z,2.10
2019-03-03T23:50:43.805Z,2.50
2019-03-03T23:53:13.227Z,2.20
2019-03-03T23:55:42.334Z,2.20
2019-03-03T23:58:12.434Z,2.70
